Alta, Iowa
Current Conditions -  °F | °C
As of 6:35 AM on Friday 24 Oct 2014 (Local Time) from KSLB Reporting Station
Clear Clear  
Wind Chill: 57°   Ceiling: Unl
Heat Index: 57°   Visibility: 7mi
Dew Point: 55°   Wind: 9mph
Humidity: 94%   Direction: 200°SSW
Pressure: 29.89"   Gusts: NA
Location:  42.67°N, 95.29°W
Report Text: KSLB 241135Z AUTO 20008KT 7SM CLR 14/13 A2989 RMK AO2
Loading
Personal Weather Stations






























Interactive Weather Map New forecast layout! Learn more

10-Day Weather Forecast

Advertisements
Track Severe Weather on mobile